Time,TemperatureF,DewpointF,PressureIn,WindDirection,WindDirectionDegrees,WindSpeedMPH,WindSpeedGustMPH,Humidity,HourlyPrecipIn,Conditions,Clouds,dailyrainin,SolarRadiationWatts/m^2,SoftwareType,DateUTC
2014-09-01 00:44:00,70.0,65.0,-100.00,NNE,22,3.0,-999.0,84,-99.99,,,-99.99,0.000000,,2014-09-01 04:44:00,
2014-09-01 00:53:00,70.0,65.0,-100.00,NNE,22,3.0,-999.0,84,-99.99,,,-99.99,0.000000,,2014-09-01 04:53:00,
2014-09-01 01:43:00,69.0,65.0,-100.00,NE,45,3.0,-999.0,87,-99.99,,,-99.99,0.000000,,2014-09-01 05:43:00,
2014-09-01 01:52:00,69.0,65.0,-100.00,NE,45,3.0,-999.0,87,-99.99,,,-99.99,0.000000,,2014-09-01 05:52:00,
2014-09-01 02:42:00,70.0,66.0,-100.00,NE,45,4.0,-999.0,87,-99.99,,,-99.99,0.000000,,2014-09-01 06:42:00,
2014-09-01 02:52:00,70.0,66.0,-100.00,NE,45,4.0,-999.0,87,-99.99,,,-99.99,0.000000,,2014-09-01 06:52:00,
2014-09-01 04:00:00,71.0,67.0,-100.00,NE,45,6.0,-999.0,88,-99.99,,,-99.99,0.000000,,2014-09-01 08:00:00,
2014-09-01 04:42:00,71.0,67.0,-100.00,NE,45,6.0,-999.0,88,-99.99,,,-99.99,0.000000,,2014-09-01 08:42:00,
2014-09-01 05:44:00,70.0,67.0,-100.00,NE,45,5.0,-999.0,89,-99.99,,,-99.99,0.000000,,2014-09-01 09:44:00,
2014-09-01 05:54:00,70.0,67.0,-100.00,NE,45,5.0,-999.0,89,-99.99,,,-99.99,0.000000,,2014-09-01 09:54:00,
2014-09-01 09:00:00,72.0,68.0,-100.00,ENE,67,9.0,-999.0,87,0.04,,,-99.99,39.439999,,2014-09-01 13:00:00,
2014-09-01 09:53:00,72.0,68.0,-100.00,ENE,67,9.0,-999.0,87,0.04,,,-99.99,39.439999,,2014-09-01 13:53:00,
2014-09-01 11:00:00,74.0,69.0,-100.00,NE,45,10.0,-999.0,84,-99.99,,,-99.99,93.959999,,2014-09-01 15:00:00,
2014-09-01 11:44:00,74.0,69.0,-100.00,NE,45,10.0,-999.0,84,-99.99,,,-99.99,93.959999,,2014-09-01 15:44:00,
2014-09-01 11:54:00,74.0,69.0,-100.00,NE,45,10.0,-999.0,84,-99.99,,,-99.99,93.959999,,2014-09-01 15:54:00,
2014-09-01 12:43:00,74.0,68.0,-100.00,ENE,67,11.0,-999.0,81,-99.99,,,-99.99,98.599998,,2014-09-01 16:43:00,
2014-09-01 12:54:00,74.0,68.0,-100.00,ENE,67,11.0,-999.0,81,-99.99,,,-99.99,98.599998,,2014-09-01 16:54:00,
2014-09-01 15:42:00,74.0,70.0,-100.00,ESE,112,8.0,-999.0,87,0.05,,,-99.99,395.559998,,2014-09-01 19:42:00,
2014-09-01 17:00:00,80.0,66.0,-100.00,ESE,112,10.0,-999.0,61,-99.99,,,-99.99,469.799988,,2014-09-01 21:00:00,
2014-09-01 17:54:00,80.0,66.0,-100.00,ESE,112,10.0,-999.0,61,-99.99,,,-99.99,469.799988,,2014-09-01 21:54:00,
2014-09-01 18:43:00,81.0,65.0,-100.00,SE,135,11.0,-999.0,57,-99.99,,,-99.99,363.079987,,2014-09-01 22:43:00,
2014-09-01 18:53:00,81.0,65.0,-100.00,SE,135,11.0,-999.0,57,-99.99,,,-99.99,363.079987,,2014-09-01 22:53:00,
2014-09-01 19:00:00,80.0,63.0,-100.00,SE,135,10.0,-999.0,56,-99.99,,,-99.99,201.839996,,2014-09-01 23:00:00,
2014-09-01 19:43:00,80.0,63.0,-100.00,SE,135,10.0,-999.0,56,-99.99,,,-99.99,201.839996,,2014-09-01 23:43:00,